Observation data for Goodlett on 11/14/2019      Previous  Date  Next       Current Mesonet Observations  Soil Data  Daily Summary Page  Observations in Plain Language
KGDS 140600Z 01006KT M00/M04 A3009 RMK A01 T10041042  RH  076%=      5-min Rain = 0
KGDS 140605Z 01006KT M01/M04 A3009 RMK A01 T10051042  RH  076%=      5-min Rain = 0
KGDS 140610Z 02006KT M01/M04 A301 RMK A01 T10061043  RH  076%=      5-min Rain = 0
KGDS 140615Z 02006KT M01/M04 A301 RMK A01 T10061044  RH  076%=      5-min Rain = 0
KGDS 140620Z 01006KT M01/M05 A301 RMK A01 T10071045  RH  076%=      5-min Rain = 0
KGDS 140625Z 02006KT M01/M05 A301 RMK A01 T10081046  RH  076%=      5-min Rain = 0
KGDS 140630Z 01006KT M01/M05 A301 RMK A01 T10081047  RH  075%=      5-min Rain = 0
KGDS 140635Z 01005KT M01/M05 A3011 RMK A01 T10081047  RH  075%=      5-min Rain = 0
KGDS 140640Z 01005KT M01/M05 A3011 RMK A01 T10091048  RH  075%=      5-min Rain = 0
KGDS 140645Z 01006KT M01/M05 A3011 RMK A01 T10091047  RH  075%=      5-min Rain = 0
KGDS 140650Z 01006KT M01/M05 A3011 RMK A01 T10101049  RH  075%=      5-min Rain = 0
KGDS 140655Z 01006KT M01/M05 A3012 RMK A01 T10111048  RH  076%=      5-min Rain = 0
KGDS 140700Z 01006KT M01/M05 A3012 RMK A01 T10111048  RH  076%=      5-min Rain = 0
KGDS 140705Z 00006KT M01/M05 A3012 RMK A01 T10141050  RH  077%=      5-min Rain = 0
KGDS 140710Z 36006KT M02/M05 A3013 RMK A01 T10161050  RH  078%=      5-min Rain = 0
KGDS 140715Z 36007KT M02/M05 A3013 RMK A01 T10151049  RH  078%=      5-min Rain = 0
KGDS 140720Z 00007KT M01/M05 A3013 RMK A01 T10131050  RH  076%=      5-min Rain = 0
KGDS 140725Z 36006KT M01/M05 A3013 RMK A01 T10141051  RH  076%=      5-min Rain = 0
KGDS 140730Z 36007KT M02/M05 A3014 RMK A01 T10161052  RH  077%=      5-min Rain = 0
KGDS 140735Z 36008KT M02/M05 A3014 RMK A01 T10161052  RH  077%=      5-min Rain = 0
KGDS 140740Z 35008KT M02/M05 A3015 RMK A01 T10151053  RH  076%=      5-min Rain = 0
KGDS 140745Z 36008KT M02/M05 A3015 RMK A01 T10151054  RH  075%=      5-min Rain = 0
KGDS 140750Z 36008KT M02/M06 A3015 RMK A01 T10171055  RH  075%=      5-min Rain = 0
KGDS 140755Z 35007KT M02/M06 A3015 RMK A01 T10171055  RH  075%=      5-min Rain = 0
KGDS 140800Z 35007KT M02/M06 A3016 RMK A01 T10161056  RH  074%=      5-min Rain = 0
KGDS 140805Z 35008KT M02/M06 A3016 RMK A01 T10151056  RH  074%=      5-min Rain = 0
KGDS 140810Z 36007KT M01/M06 A3016 RMK A01 T10121056  RH  072%=      5-min Rain = 0
KGDS 140815Z 36007KT M01/M06 A3016 RMK A01 T10091056  RH  071%=      5-min Rain = 0
KGDS 140820Z 36007KT M01/M06 A3016 RMK A01 T10091057  RH  070%=      5-min Rain = 0
KGDS 140825Z 36007KT M01/M06 A3016 RMK A01 T10101057  RH  071%=      5-min Rain = 0
KGDS 140830Z 36007KT M01/M06 A3016 RMK A01 T10091057  RH  070%=      5-min Rain = 0
KGDS 140835Z 35008KT M01/M06 A3016 RMK A01 T10101057  RH  070%=      5-min Rain = 0
KGDS 140840Z 36008KT M01/M06 A3016 RMK A01 T10101058  RH  070%=      5-min Rain = 0
KGDS 140845Z 36007KT M01/M06 A3017 RMK A01 T10111058  RH  071%=      5-min Rain = 0
KGDS 140850Z 00007KT M01/M06 A3017 RMK A01 T10121058  RH  071%=      5-min Rain = 0
KGDS 140855Z 36006KT M01/M06 A3017 RMK A01 T10141058  RH  072%=      5-min Rain = 0
KGDS 140900Z 00005KT M02/M06 A3018 RMK A01 T10151058  RH  072%=      5-min Rain = 0
KGDS 140905Z 01005KT M02/M06 A3018 RMK A01 T10171059  RH  073%=      5-min Rain = 0
KGDS 140910Z 01004KT M02/M06 A3018 RMK A01 T10171059  RH  074%=      5-min Rain = 0
KGDS 140915Z 01004KT M02/M06 A3018 RMK A01 T10161059  RH  073%=      5-min Rain = 0
KGDS 140920Z 01004KT M02/M06 A3018 RMK A01 T10171059  RH  073%=      5-min Rain = 0
KGDS 140925Z 01005KT M02/M06 A3018 RMK A01 T10181060  RH  073%=      5-min Rain = 0
KGDS 140930Z 01005KT M02/M06 A3018 RMK A01 T10171059  RH  073%=      5-min Rain = 0
KGDS 140935Z 00005KT M02/M06 A3019 RMK A01 T10171059  RH  073%=      5-min Rain = 0
KGDS 140940Z 00005KT M02/M06 A3019 RMK A01 T10171059  RH  073%=      5-min Rain = 0
KGDS 140945Z 35006KT M02/M06 A3019 RMK A01 T10181060  RH  073%=      5-min Rain = 0
KGDS 140950Z 35007KT M02/M06 A302 RMK A01 T10181060  RH  074%=      5-min Rain = 0
KGDS 140955Z 35008KT M02/M06 A302 RMK A01 T10191059  RH  074%=      5-min Rain = 0
KGDS 141000Z 35007KT M02/M06 A302 RMK A01 T10191059  RH  074%=      5-min Rain = 0
KGDS 141005Z 35007KT M02/M06 A302 RMK A01 T10171059  RH  073%=      5-min Rain = 0
KGDS 141010Z 35007KT M02/M06 A302 RMK A01 T10181060  RH  073%=      5-min Rain = 0
KGDS 141015Z 34008KT M02/M06 A302 RMK A01 T10171059  RH  073%=      5-min Rain = 0
KGDS 141020Z 34008KT M02/M06 A3021 RMK A01 T10161059  RH  073%=      5-min Rain = 0
KGDS 141025Z 34008KT M02/M06 A3021 RMK A01 T10151059  RH  072%=      5-min Rain = 0
KGDS 141030Z 33007KT M02/M06 A3021 RMK A01 T10171061  RH  072%=      5-min Rain = 0
KGDS 141035Z 33007KT M02/M06 A3021 RMK A01 T10171060  RH  073%=      5-min Rain = 0
KGDS 141040Z 33007KT M02/M06 A3021 RMK A01 T10171059  RH  073%=      5-min Rain = 0
KGDS 141045Z 33008KT M02/M06 A3021 RMK A01 T10171058  RH  074%=      5-min Rain = 0
KGDS 141050Z 33008KT M02/M06 A3022 RMK A01 T10191058  RH  075%=      5-min Rain = 0
KGDS 141055Z 32008KT M02/M06 A3022 RMK A01 T10171055  RH  075%=      5-min Rain = 0
KGDS 141100Z 32008KT M02/M05 A3022 RMK A01 T10171054  RH  076%=      5-min Rain = 0
KGDS 141105Z 32008KT M02/M05 A3023 RMK A01 T10171052  RH  077%=      5-min Rain = 0
KGDS 141110Z 32008KT M01/M05 A3023 RMK A01 T10141051  RH  076%=      5-min Rain = 0
KGDS 141115Z 32008KT M02/M05 A3023 RMK A01 T10161053  RH  076%=      5-min Rain = 0
KGDS 141120Z 33008KT M02/M05 A3023 RMK A01 T10181052  RH  077%=      5-min Rain = 0
KGDS 141125Z 33008KT M02/M05 A3024 RMK A01 T10161052  RH  077%=      5-min Rain = 0
KGDS 141130Z 33009KT M02/M05 A3024 RMK A01 T10161051  RH  077%=      5-min Rain = 0
KGDS 141135Z 34009KT M01/M05 A3024 RMK A01 T10131049  RH  077%=      5-min Rain = 0
KGDS 141140Z 34009KT M01/M05 A3024 RMK A01 T10121049  RH  076%=      5-min Rain = 0
KGDS 141145Z 34009KT M01/M05 A3024 RMK A01 T10111048  RH  076%=      5-min Rain = 0
KGDS 141150Z 34009KT M01/M05 A3024 RMK A01 T10121049  RH  076%=      5-min Rain = 0
KGDS 141155Z 35009KT M01/M05 A3025 RMK A01 T10111047  RH  076%=      5-min Rain = 0
KGDS 141200Z 35009KT M01/M05 A3025 RMK A01 T10061045  RH  075%=      5-min Rain = 0
KGDS 141205Z 34009KT M01/M05 A3025 RMK A01 T10071047  RH  075%=      5-min Rain = 0
KGDS 141210Z 35009KT M01/M05 A3025 RMK A01 T10101046  RH  077%=      5-min Rain = 0
KGDS 141215Z 35008KT M01/M05 A3026 RMK A01 T10101046  RH  077%=      5-min Rain = 0
KGDS 141220Z 35008KT M01/M05 A3026 RMK A01 T10081045  RH  076%=      5-min Rain = 0
KGDS 141225Z 35009KT M01/M05 A3026 RMK A01 T10131048  RH  078%=      5-min Rain = 0
KGDS 141230Z 35009KT M01/M05 A3026 RMK A01 T10131047  RH  078%=      5-min Rain = 0
KGDS 141235Z 34010KT M01/M05 A3026 RMK A01 T10121046  RH  078%=      5-min Rain = 0
KGDS 141240Z 35010KT M01/M05 A3026 RMK A01 T10131047  RH  078%=      5-min Rain = 0
KGDS 141245Z 35009KT M01/M05 A3026 RMK A01 T10101045  RH  077%=      5-min Rain = 0
KGDS 141250Z 35009KT M01/M05 A3027 RMK A01 T10121046  RH  078%=      5-min Rain = 0
KGDS 141255Z 35009KT M01/M05 A3027 RMK A01 T10101045  RH  077%=      5-min Rain = 0
KGDS 141300Z 35008KT M01/M04 A3028 RMK A01 T10071044  RH  077%=      5-min Rain = 0
KGDS 141305Z 35008KT M01/M04 A3028 RMK A01 T10061043  RH  077%=      5-min Rain = 0
KGDS 141310Z 35007KT M01/M04 A3028 RMK A01 T10081043  RH  077%=      5-min Rain = 0
KGDS 141315Z 34007KT M01/M04 A3029 RMK A01 T10081044  RH  077%=      5-min Rain = 0
KGDS 141320Z 35009KT M01/M04 A3029 RMK A01 T10101044  RH  078%=      5-min Rain = 0
KGDS 141325Z 35009KT M01/M04 A3029 RMK A01 T10081042  RH  078%=      5-min Rain = 0
KGDS 141330Z 35009KT M00/M04 A3029 RMK A01 T10041039  RH  077%=      5-min Rain = 0
KGDS 141335Z 35008KT M00/M04 A3029 RMK A01 T10011037  RH  077%=      5-min Rain = 0
KGDS 141340Z 35008KT 00/M03 A303 RMK A01 T00041034  RH  076%=      5-min Rain = 0
KGDS 141345Z 34008KT 01/M04 A303 RMK A01 T00051035  RH  075%=      5-min Rain = 0
KGDS 141350Z 34008KT 00/M04 A3031 RMK A01 T00031036  RH  075%=      5-min Rain = 0
KGDS 141355Z 33007KT 01/M04 A3032 RMK A01 T00051035  RH  075%=      5-min Rain = 0
KGDS 141400Z 33006KT 01/M03 A3032 RMK A01 T00091032  RH  075%=      5-min Rain = 0
KGDS 141405Z 34006KT 01/M03 A3033 RMK A01 T00121030  RH  074%=      5-min Rain = 0
KGDS 141410Z 34006KT 02/M03 A3033 RMK A01 T00151028  RH  073%=      5-min Rain = 0
KGDS 141415Z 35007KT 02/M02 A3033 RMK A01 T00201024  RH  073%=      5-min Rain = 0
KGDS 141420Z 35007KT 02/M02 A3033 RMK A01 T00241021  RH  073%=      5-min Rain = 0
KGDS 141425Z 35008KT 03/M02 A3034 RMK A01 T00281019  RH  072%=      5-min Rain = 0
KGDS 141430Z 35009KT 03/M02 A3034 RMK A01 T00321017  RH  071%=      5-min Rain = 0
KGDS 141435Z 36008KT 04/M02 A3034 RMK A01 T00361015  RH  070%=      5-min Rain = 0
KGDS 141440Z 36010KT 04/M01 A3035 RMK A01 T00401014  RH  068%=      5-min Rain = 0
KGDS 141445Z 00010KT 04/M01 A3035 RMK A01 T00431013  RH  067%=      5-min Rain = 0
KGDS 141450Z 01011KT 05/M01 A3035 RMK A01 T00451013  RH  067%=      5-min Rain = 0
KGDS 141455Z 01010KT 05/M01 A3036 RMK A01 T00471012  RH  066%=      5-min Rain = 0
KGDS 141500Z 01011KT 05/M01 A3036 RMK A01 T00491012  RH  065%=      5-min Rain = 0
KGDS 141505Z 02010KT 05/M01 A3036 RMK A01 T00511011  RH  065%=      5-min Rain = 0
KGDS 141510Z 01012KT 05/M01 A3037 RMK A01 T00531011  RH  064%=      5-min Rain = 0
KGDS 141515Z 02010KT 06/M01 A3037 RMK A01 T00551010  RH  063%=      5-min Rain = 0
KGDS 141520Z 02011KT 06/M01 A3037 RMK A01 T00581010  RH  062%=      5-min Rain = 0
KGDS 141525Z 02010KT 06/M01 A3038 RMK A01 T00601009  RH  062%=      5-min Rain = 0
KGDS 141530Z 03012KT 06/M01 A3038 RMK A01 T00601010  RH  061%=      5-min Rain = 0
KGDS 141535Z 03012KT 06/M01 A3038 RMK A01 T00611010  RH  061%=      5-min Rain = 0
KGDS 141540Z 03013KT 06/M01 A3038 RMK A01 T00621011  RH  060%=      5-min Rain = 0
KGDS 141545Z 03012KT 06/M01 A3039 RMK A01 T00641011  RH  059%=      5-min Rain = 0
KGDS 141550Z 03013KT 07/M01 A3039 RMK A01 T00661010  RH  059%=      5-min Rain = 0
KGDS 141555Z 02012KT 07/M01 A3039 RMK A01 T00691010  RH  058%=      5-min Rain = 0
KGDS 141600Z 04010G15KT 07/M01 A3039 RMK A01 T00721009  RH  057%=      5-min Rain = 0
KGDS 141605Z 04013KT 07/M01 A3039 RMK A01 T00731010  RH  056%=      5-min Rain = 0
KGDS 141610Z 04011KT 07/M01 A3039 RMK A01 T00741009  RH  056%=      5-min Rain = 0
KGDS 141615Z 03011G16KT 08/M01 A3039 RMK A01 T00771008  RH  055%=      5-min Rain = 0
KGDS 141620Z 04011KT 08/M01 A3039 RMK A01 T00801008  RH  054%=      5-min Rain = 0
KGDS 141625Z 03012KT 08/M01 A304 RMK A01 T00811009  RH  054%=      5-min Rain = 0
KGDS 141630Z 03012KT 08/M01 A304 RMK A01 T00811008  RH  054%=      5-min Rain = 0
KGDS 141635Z 03012KT 08/M01 A304 RMK A01 T00831009  RH  053%=      5-min Rain = 0
KGDS 141640Z 04011G16KT 08/M01 A304 RMK A01 T00841009  RH  052%=      5-min Rain = 0
KGDS 141645Z 04011KT 09/M01 A304 RMK A01 T00851010  RH  052%=      5-min Rain = 0
KGDS 141650Z 03012G17KT 09/M01 A304 RMK A01 T00861010  RH  052%=      5-min Rain = 0
KGDS 141655Z 03014KT 09/M01 A3041 RMK A01 T00881010  RH  051%=      5-min Rain = 0
KGDS 141700Z 04015KT 09/M01 A3041 RMK A01 T00911009  RH  050%=      5-min Rain = 0
KGDS 141705Z 04013G18KT 09/M01 A304 RMK A01 T00911009  RH  050%=      5-min Rain = 0
KGDS 141710Z 04013KT 09/M01 A3041 RMK A01 T00941008  RH  049%=      5-min Rain = 0
KGDS 141715Z 04013KT 09/M01 A3041 RMK A01 T00941010  RH  049%=      5-min Rain = 0
KGDS 141720Z 03014KT 10/M01 A3041 RMK A01 T00971009  RH  048%=      5-min Rain = 0
KGDS 141725Z 03012G19KT 10/M01 A304 RMK A01 T00971009  RH  048%=      5-min Rain = 0
KGDS 141730Z 03013G18KT 10/M01 A304 RMK A01 T00981010  RH  048%=      5-min Rain = 0
KGDS 141735Z 03013KT 10/M01 A304 RMK A01 T01021008  RH  047%=      5-min Rain = 0
KGDS 141740Z 03013KT 10/M01 A304 RMK A01 T01041008  RH  046%=      5-min Rain = 0
KGDS 141745Z 03013G18KT 10/M01 A304 RMK A01 T01031008  RH  047%=      5-min Rain = 0
KGDS 141750Z 03015G20KT 10/M01 A304 RMK A01 T01041009  RH  046%=      5-min Rain = 0
KGDS 141755Z 04013G18KT 10/M01 A304 RMK A01 T01041008  RH  046%=      5-min Rain = 0
KGDS 141800Z 03013KT 11/M01 A3039 RMK A01 T01091006  RH  045%=      5-min Rain = 0
KGDS 141805Z 03012KT 11/M01 A3039 RMK A01 T01061008  RH  045%=      5-min Rain = 0
KGDS 141810Z 04010KT 11/M01 A3039 RMK A01 T01071008  RH  045%=      5-min Rain = 0
KGDS 141815Z 05009KT 11/M01 A3039 RMK A01 T01081007  RH  045%=      5-min Rain = 0
KGDS 141820Z 02012G17KT 11/M01 A3039 RMK A01 T01091007  RH  045%=      5-min Rain = 0
KGDS 141825Z 04009G15KT 11/M01 A3038 RMK A01 T01091008  RH  045%=      5-min Rain = 0
KGDS 141830Z 03013KT 11/M01 A3038 RMK A01 T01121007  RH  044%=      5-min Rain = 0
KGDS 141835Z 04010G16KT 11/M01 A3038 RMK A01 T01131007  RH  044%=      5-min Rain = 0
KGDS 141840Z 04010G15KT 11/M01 A3038 RMK A01 T01141007  RH  044%=      5-min Rain = 0
KGDS 141845Z 02012G17KT 12/M01 A3038 RMK A01 T01161007  RH  043%=      5-min Rain = 0
KGDS 141850Z 03010G17KT 12/M01 A3038 RMK A01 T01191005  RH  043%=      5-min Rain = 0
KGDS 141855Z 02010KT 12/M01 A3038 RMK A01 T01231006  RH  041%=      5-min Rain = 0
KGDS 141900Z 04008G13KT 12/M01 A3037 RMK A01 T01211006  RH  042%=      5-min Rain = 0
KGDS 141905Z 03009KT 12/M01 A3037 RMK A01 T01231006  RH  041%=      5-min Rain = 0
KGDS 141910Z 03011KT 12/M01 A3037 RMK A01 T01221007  RH  041%=      5-min Rain = 0
KGDS 141915Z 03012G17KT 12/M01 A3037 RMK A01 T01221007  RH  041%=      5-min Rain = 0
KGDS 141920Z 03011G16KT 12/M01 A3037 RMK A01 T01211007  RH  041%=      5-min Rain = 0
KGDS 141925Z 04011KT 12/M01 A3036 RMK A01 T01231007  RH  041%=      5-min Rain = 0
KGDS 141930Z 02012G18KT 13/M01 A3036 RMK A01 T01271006  RH  040%=      5-min Rain = 0
KGDS 141935Z 04008G14KT 12/M01 A3036 RMK A01 T01231009  RH  040%=      5-min Rain = 0
KGDS 141940Z 04014G21KT 13/M01 A3036 RMK A01 T01271006  RH  040%=      5-min Rain = 0
KGDS 141945Z 02012G17KT 13/M01 A3036 RMK A01 T01251007  RH  040%=      5-min Rain = 0
KGDS 141950Z 04010G16KT 13/M01 A3035 RMK A01 T01291006  RH  040%=      5-min Rain = 0
KGDS 141955Z 02011G16KT 13/M01 A3036 RMK A01 T01261008  RH  040%=      5-min Rain = 0
KGDS 142000Z 04010G16KT 12/M01 A3035 RMK A01 T01241007  RH  041%=      5-min Rain = 0
KGDS 142005Z 04012G17KT 13/M01 A3035 RMK A01 T01291006  RH  040%=      5-min Rain = 0
KGDS 142010Z 04008G15KT 13/M01 A3035 RMK A01 T01251007  RH  041%=      5-min Rain = 0
KGDS 142015Z 02008G15KT 13/M01 A3035 RMK A01 T01281005  RH  040%=      5-min Rain = 0
KGDS 142020Z 02010G15KT 13/M01 A3035 RMK A01 T01291006  RH  040%=      5-min Rain = 0
KGDS 142025Z 03010G17KT 13/M01 A3035 RMK A01 T01301005  RH  040%=      5-min Rain = 0
KGDS 142030Z 04012KT 13/M01 A3035 RMK A01 T01291006  RH  040%=      5-min Rain = 0
KGDS 142035Z 02009G14KT 13/M01 A3035 RMK A01 T01301006  RH  039%=      5-min Rain = 0
KGDS 142040Z 01009G14KT 13/M01 A3035 RMK A01 T01301006  RH  039%=      5-min Rain = 0
KGDS 142045Z 01010KT 13/M01 A3035 RMK A01 T01321005  RH  039%=      5-min Rain = 0
KGDS 142050Z 03009G14KT 13/M01 A3035 RMK A01 T01301006  RH  040%=      5-min Rain = 0
KGDS 142055Z 03009G14KT 13/M01 A3035 RMK A01 T01301006  RH  040%=      5-min Rain = 0
KGDS 142100Z 03010G15KT 13/M01 A3035 RMK A01 T01311005  RH  039%=      5-min Rain = 0
KGDS 142105Z 04011KT 13/M01 A3035 RMK A01 T01311005  RH  040%=      5-min Rain = 0
KGDS 142110Z 03008G13KT 13/M01 A3035 RMK A01 T01301005  RH  040%=      5-min Rain = 0
KGDS 142115Z 05006G11KT 13/M01 A3035 RMK A01 T01291006  RH  040%=      5-min Rain = 0
KGDS 142120Z 03007KT 13/M01 A3035 RMK A01 T01311005  RH  040%=      5-min Rain = 0
KGDS 142125Z 03008KT 13/M01 A3035 RMK A01 T01301006  RH  039%=      5-min Rain = 0
KGDS 142130Z 01008KT 13/M01 A3035 RMK A01 T01341005  RH  039%=      5-min Rain = 0
KGDS 142135Z 04008G14KT 13/M01 A3035 RMK A01 T01331006  RH  039%=      5-min Rain = 0
KGDS 142140Z 02010KT 13/M01 A3035 RMK A01 T01321006  RH  039%=      5-min Rain = 0
KGDS 142145Z 03011KT 13/M01 A3035 RMK A01 T01331006  RH  039%=      5-min Rain = 0
KGDS 142150Z 02011KT 13/M01 A3035 RMK A01 T01301006  RH  039%=      5-min Rain = 0
KGDS 142155Z 01009KT 13/M01 A3035 RMK A01 T01301006  RH  040%=      5-min Rain = 0
KGDS 142200Z 01009KT 13/M01 A3035 RMK A01 T01311005  RH  040%=      5-min Rain = 0
KGDS 142205Z 01007KT 13/M01 A3035 RMK A01 T01301005  RH  040%=      5-min Rain = 0
KGDS 142210Z 03007KT 13/M01 A3035 RMK A01 T01301005  RH  040%=      5-min Rain = 0
KGDS 142215Z 03009KT 13/M01 A3035 RMK A01 T01291005  RH  040%=      5-min Rain = 0
KGDS 142220Z 06010KT 13/M01 A3034 RMK A01 T01291005  RH  040%=      5-min Rain = 0
KGDS 142225Z 05009KT 13/M00 A3034 RMK A01 T01281004  RH  040%=      5-min Rain = 0
KGDS 142230Z 05008KT 13/M00 A3034 RMK A01 T01291004  RH  040%=      5-min Rain = 0
KGDS 142235Z 03008KT 13/M00 A3035 RMK A01 T01291004  RH  040%=      5-min Rain = 0
KGDS 142240Z 04009KT 13/M01 A3034 RMK A01 T01281005  RH  040%=      5-min Rain = 0
KGDS 142245Z 04007KT 13/M00 A3035 RMK A01 T01281004  RH  041%=      5-min Rain = 0
KGDS 142250Z 02008KT 13/M01 A3035 RMK A01 T01271005  RH  041%=      5-min Rain = 0
KGDS 142255Z 03007KT 13/M01 A3035 RMK A01 T01251005  RH  041%=      5-min Rain = 0
KGDS 142300Z 03005KT 12/M00 A3035 RMK A01 T01241004  RH  042%=      5-min Rain = 0
KGDS 142305Z 04005KT 12/M01 A3035 RMK A01 T01221005  RH  042%=      5-min Rain = 0
KGDS 142310Z 04007KT 12/M01 A3035 RMK A01 T01201005  RH  043%=      5-min Rain = 0
KGDS 142315Z 05006KT 12/M01 A3035 RMK A01 T01171005  RH  043%=      5-min Rain = 0
KGDS 142320Z 05006KT 12/M01 A3035 RMK A01 T01151006  RH  044%=      5-min Rain = 0
KGDS 142325Z 05005KT 11/M01 A3035 RMK A01 T01111006  RH  045%=      5-min Rain = 0
KGDS 142330Z 05005KT 11/M01 A3036 RMK A01 T01081006  RH  046%=      5-min Rain = 0
KGDS 142335Z 04005KT 11/M01 A3036 RMK A01 T01051006  RH  046%=      5-min Rain = 0
KGDS 142340Z 04005KT 10/M01 A3036 RMK A01 T01001007  RH  048%=      5-min Rain = 0
KGDS 142345Z 04004KT 10/M01 A3035 RMK A01 T00951008  RH  049%=      5-min Rain = 0
KGDS 142350Z 05004KT 09/M01 A3036 RMK A01 T00941008  RH  049%=      5-min Rain = 0
KGDS 142355Z 05004KT 09/M01 A3036 RMK A01 T00921009  RH  050%=      5-min Rain = 0
KGDS 150000Z 05004KT 09/M01 A3036 RMK A01 T00921008  RH  050%=      5-min Rain = 0
KGDS 150005Z 04004KT 09/M01 A3036 RMK A01 T00921008  RH  050%=      5-min Rain = 0
KGDS 150010Z 04004KT 09/M01 A3036 RMK A01 T00921008  RH  050%=      5-min Rain = 0
KGDS 150015Z 04004KT 09/M01 A3037 RMK A01 T00921008  RH  050%=      5-min Rain = 0
KGDS 150020Z 04003KT 09/M01 A3037 RMK A01 T00901008  RH  051%=      5-min Rain = 0
KGDS 150025Z 04003KT 09/M01 A3037 RMK A01 T00901008  RH  051%=      5-min Rain = 0
KGDS 150030Z 05003KT 09/M01 A3037 RMK A01 T00901008  RH  051%=      5-min Rain = 0
KGDS 150035Z 06003KT 09/M01 A3037 RMK A01 T00901008  RH  051%=      5-min Rain = 0
KGDS 150040Z 06003KT 09/M01 A3037 RMK A01 T00901007  RH  051%=      5-min Rain = 0
KGDS 150045Z 07004KT 09/M01 A3038 RMK A01 T00911007  RH  051%=      5-min Rain = 0
KGDS 150050Z 07004KT 09/M01 A3038 RMK A01 T00881009  RH  051%=      5-min Rain = 0
KGDS 150055Z 07004KT 09/M01 A3038 RMK A01 T00851008  RH  052%=      5-min Rain = 0
KGDS 150100Z 07004KT 09/M01 A3038 RMK A01 T00851008  RH  053%=      5-min Rain = 0
KGDS 150105Z 08004KT 09/M01 A3038 RMK A01 T00851007  RH  053%=      5-min Rain = 0
KGDS 150110Z 08005KT 09/M01 A3038 RMK A01 T00851007  RH  053%=      5-min Rain = 0
KGDS 150115Z 09005KT 09/M01 A3038 RMK A01 T00851007  RH  053%=      5-min Rain = 0
KGDS 150120Z 09005KT 08/M01 A3038 RMK A01 T00801008  RH  054%=      5-min Rain = 0
KGDS 150125Z 09005KT 07/M01 A3038 RMK A01 T00721010  RH  056%=      5-min Rain = 0
KGDS 150130Z 11004KT 08/M01 A3039 RMK A01 T00751007  RH  056%=      5-min Rain = 0
KGDS 150135Z 17003KT 07/M02 A3039 RMK A01 T00651016  RH  057%=      5-min Rain = 0
KGDS 150140Z 16002KT 06/M01 A3039 RMK A01 T00631013  RH  059%=      5-min Rain = 0
KGDS 150145Z 14002KT 07/M01 A3039 RMK A01 T00691010  RH  057%=      5-min Rain = 0
KGDS 150150Z 13003KT 07/M01 A3039 RMK A01 T00711010  RH  057%=      5-min Rain = 0
KGDS 150155Z 14002KT 07/M01 A3039 RMK A01 T00711010  RH  057%=      5-min Rain = 0
KGDS 150200Z 18001KT 07/M01 A3039 RMK A01 T00681010  RH  058%=      5-min Rain = 0
KGDS 150205Z 19002KT 07/M01 A3039 RMK A01 T00701009  RH  058%=      5-min Rain = 0
KGDS 150210Z 18001KT 07/M01 A3039 RMK A01 T00731008  RH  057%=      5-min Rain = 0
KGDS 150215Z 17002KT 07/M01 A304 RMK A01 T00741008  RH  057%=      5-min Rain = 0
KGDS 150220Z 19002KT 07/M01 A304 RMK A01 T00721008  RH  057%=      5-min Rain = 0
KGDS 150225Z 23002KT 07/M01 A304 RMK A01 T00681009  RH  059%=      5-min Rain = 0
KGDS 150230Z 23002KT 07/M01 A304 RMK A01 T00661008  RH  060%=      5-min Rain = 0
KGDS 150235Z 22000KT 07/M01 A304 RMK A01 T00661008  RH  060%=      5-min Rain = 0
KGDS 150240Z 00000KT 06/M01 A304 RMK A01 T00641009  RH  060%=      5-min Rain = 0
KGDS 150245Z 14001KT 07/M01 A304 RMK A01 T00671006  RH  060%=      5-min Rain = 0
KGDS 150250Z 15001KT 07/M01 A304 RMK A01 T00731006  RH  058%=      5-min Rain = 0
KGDS 150255Z 17001KT 07/M01 A3041 RMK A01 T00731006  RH  058%=      5-min Rain = 0
KGDS 150300Z 17000KT 07/M01 A3041 RMK A01 T00701007  RH  059%=      5-min Rain = 0
KGDS 150305Z 00000KT 07/M01 A3041 RMK A01 T00671007  RH  060%=      5-min Rain = 0
KGDS 150310Z 00000KT 07/M01 A3041 RMK A01 T00681007  RH  060%=      5-min Rain = 0
KGDS 150315Z 23002KT 06/M01 A3041 RMK A01 T00641008  RH  061%=      5-min Rain = 0
KGDS 150320Z 22003KT 06/M01 A3041 RMK A01 T00601009  RH  062%=      5-min Rain = 0
KGDS 150325Z 22004KT 06/M01 A3041 RMK A01 T00581008  RH  063%=      5-min Rain = 0
KGDS 150330Z 23005KT 06/M01 A3041 RMK A01 T00581007  RH  064%=      5-min Rain = 0
KGDS 150335Z 22004KT 06/M01 A3041 RMK A01 T00581008  RH  063%=      5-min Rain = 0
KGDS 150340Z 22004KT 06/M01 A3041 RMK A01 T00581007  RH  063%=      5-min Rain = 0
KGDS 150345Z 23005KT 06/M01 A3041 RMK A01 T00581007  RH  063%=      5-min Rain = 0
KGDS 150350Z 23005KT 06/M01 A3041 RMK A01 T00561008  RH  064%=      5-min Rain = 0
KGDS 150355Z 24005KT 06/M01 A3041 RMK A01 T00551008  RH  065%=      5-min Rain = 0
KGDS 150400Z 24005KT 05/M01 A3041 RMK A01 T00531008  RH  065%=      5-min Rain = 0
KGDS 150405Z 24005KT 05/M01 A3041 RMK A01 T00511008  RH  066%=      5-min Rain = 0
KGDS 150410Z 24006KT 05/M01 A3042 RMK A01 T00491008  RH  067%=      5-min Rain = 0
KGDS 150415Z 24006KT 05/M01 A3042 RMK A01 T00491009  RH  067%=      5-min Rain = 0
KGDS 150420Z 24006KT 05/M01 A3042 RMK A01 T00471009  RH  067%=      5-min Rain = 0
KGDS 150425Z 24006KT 05/M01 A3042 RMK A01 T00461009  RH  068%=      5-min Rain = 0
KGDS 150430Z 24005KT 05/M01 A3042 RMK A01 T00451009  RH  069%=      5-min Rain = 0
KGDS 150435Z 24005KT 04/M01 A3042 RMK A01 T00441010  RH  069%=      5-min Rain = 0
KGDS 150440Z 24005KT 04/M01 A3042 RMK A01 T00441010  RH  069%=      5-min Rain = 0
KGDS 150445Z 24006KT 04/M01 A3042 RMK A01 T00441010  RH  068%=      5-min Rain = 0
KGDS 150450Z 23004KT 05/M01 A3042 RMK A01 T00471009  RH  068%=      5-min Rain = 0
KGDS 150455Z 24005KT 05/M01 A3042 RMK A01 T00491009  RH  067%=      5-min Rain = 0
KGDS 150500Z 24005KT 05/M01 A3042 RMK A01 T00481010  RH  067%=      5-min Rain = 0
KGDS 150505Z 25005KT 05/M01 A3042 RMK A01 T00451011  RH  068%=      5-min Rain = 0
KGDS 150510Z 25006KT 04/M01 A3042 RMK A01 T00431011  RH  068%=      5-min Rain = 0
KGDS 150515Z 25006KT 04/M01 A3042 RMK A01 T00411011  RH  070%=      5-min Rain = 0
KGDS 150520Z 25005KT 04/M01 A3042 RMK A01 T00391011  RH  070%=      5-min Rain = 0
KGDS 150525Z 25005KT 04/M01 A3042 RMK A01 T00411011  RH  069%=      5-min Rain = 0
KGDS 150530Z 24005KT 04/M01 A3042 RMK A01 T00421011  RH  069%=      5-min Rain = 0
KGDS 150535Z 25005KT 04/M01 A3042 RMK A01 T00431011  RH  069%=      5-min Rain = 0
KGDS 150540Z 26006KT 04/M01 A3042 RMK A01 T00411012  RH  069%=      5-min Rain = 0
KGDS 150545Z 25006KT 04/M01 A3042 RMK A01 T00391012  RH  070%=      5-min Rain = 0
KGDS 150550Z 25005KT 04/M01 A3042 RMK A01 T00401011  RH  070%=      5-min Rain = 0
KGDS 150555Z 24004KT 04/M01 A3042 RMK A01 T00421011  RH  069%=      5-min Rain = 0

Page generated in 0.009 seconds.